ADDS METAR Data INFO
IDs: Format: Raw Decoded Include TAF

Data at: 0046 UTC 22 Oct 2017

KBKL 212353Z 16012KT 10SM CLR 21/08 A3022 RMK AO2 SLP231 T02060083 10239 20206 53007
KBKL 212253Z 14009KT 10SM CLR 22/08 A3020 RMK AO2 SLP224 T02170078
KBKL 212153Z 15006KT 10SM CLR 23/08 A3020 RMK AO2 SLP225 T02280078
KBKL 212053Z 14006KT 10SM CLR 23/08 A3020 RMK AO2 SLP223 T02280083 56008
KBKL 211953Z 15006KT 10SM CLR 23/09 A3020 RMK AO2 SLP224 T02330089
KBKL 211853Z 15007KT 10SM CLR 23/08 A3021 RMK AO2 SLP228 T02330083
KBKL 211753Z 19005KT 10SM CLR 23/08 A3022 RMK AO2 SLP231 T02280078 10228 20122 58014
KBKL 211653Z 17007KT 10SM CLR 22/08 A3024 RMK AO2 SLP239 T02220078
KBKL 211553Z 16008KT 10SM CLR 21/08 A3025 RMK AO2 SLP243 T02110078
KBKL 211453Z 15007KT 10SM CLR 19/07 A3026 RMK AO2 SLP245 T01890072 50005
KBKL 211353Z 16010KT 10SM CLR 15/06 A3026 RMK AO2 SLP247 T01500061
KBKL 211253Z 15010KT 10SM CLR 13/06 A3026 RMK AO2 SLP245 T01280056
KBKL 211153Z 16013KT 10SM CLR 12/05 A3024 RMK AO2 SLP241 T01220050 10150 20122 51013
KBKL 211053Z 16010KT 10SM CLR 13/04 A3024 RMK AO2 SLP238 T01280044
KBKL 210953Z AUTO 15010KT 10SM CLR 13/04 A3021 RMK AO2 SLP230 T01280044
KBKL 210853Z AUTO 15010KT 10SM CLR 13/04 A3020 RMK AO2 SLP227 T01330044 53002
KBKL 210753Z AUTO 16005KT 10SM CLR 13/04 A3020 RMK AO2 SLP224 T01330044
KBKL 210653Z AUTO 15004KT 10SM CLR 14/04 A3020 RMK AO2 SLP225 T01390044
KBKL 210553Z AUTO 15006KT 10SM CLR 15/04 A3020 RMK AO2 SLP224 T01500044 10194 20144 53004
KBKL 210453Z AUTO 15008KT 10SM CLR 15/04 A3019 RMK AO2 SLP222 T01500044 402280100
KBKL 210353Z AUTO 15010KT 10SM CLR 16/04 A3018 RMK AO2 SLP219 T01560044
KBKL 210253Z AUTO 15009KT 10SM CLR 17/04 A3018 RMK AO2 SLP220 T01670044 56002
KBKL 210153Z 16008KT 10SM CLR 18/04 A3018 RMK AO2 SLP221 T01780044
KBKL 210053Z 16006KT 10SM CLR 18/05 A3018 RMK AO2 SLP219 T01830050
KBKL 202353Z 18004KT 10SM CLR 19/05 A3019 RMK AO2 SLP223 T01940050 10228 20183 55002
KBKL 202253Z 17004KT 10SM CLR 20/08 A3018 RMK AO2 SLP219 T02000083
KBKL 202153Z 04005KT 10SM CLR 19/13 A3018 RMK AO2 SLP219 T01940128
KBKL 202053Z 04005KT 10SM CLR 21/11 A3019 RMK AO2 SLP224 T02110111 56016
KBKL 201953Z 36004KT 10SM CLR 22/03 A3021 RMK AO2 SLP229 T02220028
KBKL 201853Z 21005KT 10SM CLR 23/02 A3023 RMK AO2 SLP233 T02280017
KBKL 201753Z 15006KT 10SM CLR 22/02 A3024 RMK AO2 SLP239 T02170022 10217 20100 58017
KBKL 201653Z 19007KT 150V210 10SM CLR 21/04 A3026 RMK AO2 SLP246 T02110039
KBKL 201553Z 13007KT 10SM CLR 19/02 A3028 RMK AO2 SLP253 T01940022
KBKL 201453Z 14006KT 10SM CLR 17/08 A3029 RMK AO2 SLP256 T01720078 50009
KBKL 201353Z 15007KT 10SM CLR 14/08 A3030 RMK AO2 SLP260 T01440083
KBKL 201253Z 17004KT 7SM CLR 12/08 A3029 RMK AO2 SLP258 T01170078